Time;durP1;ratioP1;P1;durP2;ratioP2;P2;SDS_P1;SDS_P2;PMS_P1;PMS_P2;Temp;Humidity;BMP_temperature;BMP_pressure;BME280_temperature;BME280_humidity;BME280_pressure;Samples;Min_cycle;Max_cycle;Signal;HPM_P1;HPM_P2
2021/09/21 00:01:30;;;;;;;20.87;11.20;;;;;;;12.74;90.75;96876.56;5031723;28;20216;-68
2021/09/21 00:03:57;;;;;;;21.83;11.53;;;;;;;12.41;92.89;96880.38;5031875;28;20214;-67
2021/09/21 00:06:23;;;;;;;26.23;11.87;;;;;;;12.65;92.69;96890.78;5031673;28;20244;-67
2021/09/21 00:08:51;;;;;;;23.50;12.13;;;;;;;12.81;93.79;96885.44;5032015;28;20221;-68
2021/09/21 00:11:17;;;;;;;26.87;13.03;;;;;;;13.00;92.73;96893.75;5031917;28;20217;-68
2021/09/21 00:13:44;;;;;;;27.37;13.03;;;;;;;13.11;93.51;96890.72;5031905;28;20217;-67
2021/09/21 00:16:11;;;;;;;23.80;12.00;;;;;;;13.11;93.95;96892.53;5031410;28;20202;-68
2021/09/21 00:18:38;;;;;;;23.47;12.23;;;;;;;13.09;94.59;96883.94;5031544;28;20246;-68
2021/09/21 00:21:04;;;;;;;25.27;13.00;;;;;;;13.03;95.75;96876.72;5031863;28;20210;-67
2021/09/21 00:23:31;;;;;;;27.57;13.77;;;;;;;13.21;95.79;96879.88;5031444;28;20217;-66
2021/09/21 00:25:59;;;;;;;27.27;12.73;;;;;;;13.40;94.53;96875.75;5031332;28;20202;-66
2021/09/21 00:28:26;;;;;;;25.83;12.87;;;;;;;13.31;94.55;96883.13;5031405;28;20717;-67
2021/09/21 00:30:53;;;;;;;23.87;12.67;;;;;;;13.27;94.87;96897.72;5030834;28;20214;-68
2021/09/21 00:33:23;;;;;;;28.13;13.77;;;;;;;13.55;94.51;96895.13;5031299;28;20214;-68
2021/09/21 00:35:52;;;;;;;24.20;12.70;;;;;;;13.67;94.94;96888.41;5031644;28;20264;-68
2021/09/21 00:38:21;;;;;;;25.40;12.43;;;;;;;13.75;94.73;96893.63;5031388;28;20249;-68
2021/09/21 00:40:48;;;;;;;26.77;13.37;;;;;;;13.80;95.03;96890.44;5031410;28;20586;-68
2021/09/21 00:43:22;;;;;;;24.50;12.32;;;;;;;13.99;94.64;96896.03;5031290;28;20209;-68
2021/09/21 00:45:49;;;;;;;23.10;12.05;;;;;;;14.07;93.88;96895.94;5030947;28;20343;-67
2021/09/21 00:48:15;;;;;;;24.33;12.32;;;;;;;13.98;93.65;96900.50;5030643;28;20234;-68
2021/09/21 00:50:43;;;;;;;21.20;12.30;;;;;;;13.82;94.12;96899.00;5031448;28;20239;-67
2021/09/21 00:53:09;;;;;;;25.13;13.02;;;;;;;13.58;96.24;96892.13;5030971;28;20305;-68
2021/09/21 00:55:36;;;;;;;24.98;13.18;;;;;;;13.86;95.80;96887.91;5030811;28;20209;-68
2021/09/21 00:58:02;;;;;;;27.05;14.15;;;;;;;13.84;95.88;96894.38;5030454;28;20241;-68
2021/09/21 01:00:30;;;;;;;23.95;13.07;;;;;;;14.04;95.51;96898.97;5030842;28;20562;-67
2021/09/21 01:02:57;;;;;;;28.73;13.63;;;;;;;14.12;94.74;96896.25;5021416;28;20210;-66
2021/09/21 01:05:24;;;;;;;28.13;13.75;;;;;;;13.96;95.50;96904.31;5017769;28;20209;-68
2021/09/21 01:07:50;;;;;;;26.45;12.70;;;;;;;14.18;94.99;96898.19;5028811;28;20233;-68
2021/09/21 01:10:19;;;;;;;22.52;12.25;;;;;;;14.28;94.58;96904.00;5030303;28;20213;-68
2021/09/21 01:12:46;;;;;;;22.55;12.93;;;;;;;14.29;93.94;96900.34;5030591;28;20248;-69
2021/09/21 01:15:14;;;;;;;23.40;12.63;;;;;;;14.20;94.83;96893.50;5030321;28;20202;-69
2021/09/21 01:17:42;;;;;;;22.55;12.38;;;;;;;14.29;94.68;96889.75;5030332;28;20241;-69
2021/09/21 01:20:10;;;;;;;23.00;11.85;;;;;;;14.30;94.93;96888.75;5030574;28;20667;-68
2021/09/21 01:22:38;;;;;;;24.40;12.43;;;;;;;14.44;93.47;96898.53;5030712;28;20205;-68
2021/09/21 01:25:07;;;;;;;21.42;11.88;;;;;;;14.30;94.89;96894.84;5030290;28;20213;-69
2021/09/21 01:27:34;;;;;;;24.15;13.10;;;;;;;14.16;95.28;96902.81;5029757;28;20577;-69
2021/09/21 01:30:00;;;;;;;23.65;12.60;;;;;;;14.22;93.86;96907.41;5029754;28;20602;-68
2021/09/21 01:32:27;;;;;;;25.52;12.80;;;;;;;14.24;94.10;96908.88;5030473;28;20198;-68
2021/09/21 01:34:53;;;;;;;25.87;13.47;;;;;;;14.25;94.28;96910.50;5030333;28;20213;-69
2021/09/21 01:37:22;;;;;;;20.25;11.52;;;;;;;14.36;94.36;96907.38;5029819;28;20229;-69
2021/09/21 01:39:50;;;;;;;23.02;12.15;;;;;;;14.47;94.46;96908.75;5030130;28;20618;-68
2021/09/21 01:42:16;;;;;;;24.50;12.90;;;;;;;14.29;95.07;96901.16;5030254;28;20206;-69
2021/09/21 01:44:43;;;;;;;25.25;13.40;;;;;;;14.28;94.46;96910.16;5030142;28;20205;-69
2021/09/21 01:47:09;;;;;;;23.45;12.52;;;;;;;14.37;93.91;96909.03;5029738;28;20233;-69
2021/09/21 01:49:42;;;;;;;21.73;11.82;;;;;;;14.38;94.20;96904.56;5029958;28;20201;-68
2021/09/21 01:52:13;;;;;;;24.63;13.03;;;;;;;14.33;93.89;96902.47;5030002;28;20205;-69
2021/09/21 01:55:03;;;;;;;28.35;13.32;;;;;;;14.46;93.68;96894.69;5029894;28;20202;-69
2021/09/21 02:00:15;;;;;;;22.17;12.27;;;;;;;14.53;94.21;96898.22;5028564;28;20281;-69
2021/09/21 02:02:42;;;;;;;25.93;13.23;;;;;;;14.50;94.03;96897.75;5029322;28;20202;-68
2021/09/21 02:05:09;;;;;;;24.15;12.65;;;;;;;14.53;93.43;96902.72;5029872;28;20217;-69
2021/09/21 02:07:36;;;;;;;22.88;12.75;;;;;;;14.48;94.27;96907.75;5029309;28;20230;-69
2021/09/21 02:10:03;;;;;;;21.63;12.02;;;;;;;14.57;92.96;96909.28;5029891;28;20208;-69
2021/09/21 02:12:31;;;;;;;21.15;12.07;;;;;;;14.63;91.28;96913.88;5029556;28;20209;-69
2021/09/21 02:15:00;;;;;;;22.00;12.43;;;;;;;14.44;92.07;96909.94;5029697;28;20209;-69
2021/09/21 02:17:27;;;;;;;25.15;12.55;;;;;;;14.19;92.78;96902.44;5029007;28;20226;-69
2021/09/21 02:19:53;;;;;;;22.58;12.02;;;;;;;14.23;92.42;96909.03;5029553;28;20260;-69
2021/09/21 02:22:20;;;;;;;23.67;12.50;;;;;;;14.33;91.92;96902.47;5029443;28;20210;-69
2021/09/21 02:24:46;;;;;;;22.27;12.15;;;;;;;14.37;91.21;96905.53;5029509;28;20710;-69
2021/09/21 02:27:13;;;;;;;20.02;11.50;;;;;;;14.49;92.04;96907.56;5028797;28;20234;-69
2021/09/21 02:29:41;;;;;;;23.98;12.55;;;;;;;14.63;92.26;96909.38;5028612;28;20197;-69
2021/09/21 02:32:07;;;;;;;19.98;11.45;;;;;;;14.49;92.21;96909.41;5028902;28;20210;-69
2021/09/21 02:34:34;;;;;;;20.15;11.98;;;;;;;14.48;92.82;96910.41;5029426;28;20202;-69
2021/09/21 02:37:00;;;;;;;22.77;12.63;;;;;;;14.30;93.39;96915.25;5028693;28;20229;-69
2021/09/21 02:39:27;;;;;;;21.52;12.30;;;;;;;14.34;92.39;96927.13;5027924;28;20229;-69
2021/09/21 02:41:53;;;;;;;23.20;12.35;;;;;;;14.32;91.69;96926.47;5028401;28;20204;-69
2021/09/21 02:44:20;;;;;;;21.98;11.90;;;;;;;14.36;91.55;96925.13;5028407;28;20209;-69
2021/09/21 02:46:47;;;;;;;23.08;12.30;;;;;;;14.51;92.03;96929.44;5028112;28;20808;-69
2021/09/21 02:49:14;;;;;;;21.85;11.65;;;;;;;14.32;90.66;96927.31;5028384;28;20518;-69
2021/09/21 02:51:40;;;;;;;21.85;12.82;;;;;;;14.29;90.43;96921.56;5028727;28;20209;-69
2021/09/21 02:54:07;;;;;;;21.45;12.02;;;;;;;14.32;90.92;96910.56;5028819;28;20206;-69
2021/09/21 02:56:33;;;;;;;20.75;11.18;;;;;;;14.37;91.70;96918.81;5028335;28;20218;-69
2021/09/21 02:59:00;;;;;;;20.33;11.75;;;;;;;14.46;91.85;96923.00;5028050;28;20231;-69
2021/09/21 03:01:26;;;;;;;20.77;11.45;;;;;;;14.37;90.35;96926.75;5028440;28;20213;-69
2021/09/21 03:03:57;;;;;;;21.60;10.95;;;;;;;14.49;91.81;96928.78;5028425;28;20221;-69
2021/09/21 03:06:25;;;;;;;22.60;12.33;;;;;;;14.42;92.32;96932.34;5064113;22;20216;-71
2021/09/21 03:08:57;;;;;;;19.88;12.00;;;;;;;14.36;92.04;96939.22;5067250;28;20196;-70
2021/09/21 03:11:25;;;;;;;21.65;12.02;;;;;;;14.35;92.59;96939.41;5067963;28;20204;-70
2021/09/21 03:19:23;;;;;;;22.45;12.40;;;;;;;14.58;91.34;96937.47;5067391;28;20239;-71
2021/09/21 03:21:50;;;;;;;21.88;11.80;;;;;;;14.52;91.86;96936.34;5068684;28;20208;-71
2021/09/21 03:24:16;;;;;;;23.15;11.95;;;;;;;14.41;90.70;96928.88;5067985;28;20204;-70
2021/09/21 03:26:43;;;;;;;23.52;11.98;;;;;;;14.40;91.89;96926.41;5068186;28;20228;-71
2021/09/21 03:29:09;;;;;;;19.15;11.95;;;;;;;14.49;92.39;96925.31;5066855;28;20215;-71
2021/09/21 03:31:36;;;;;;;22.25;11.85;;;;;;;14.41;92.53;96934.19;5068430;28;20200;-71
2021/09/21 03:34:02;;;;;;;24.17;11.77;;;;;;;14.41;92.20;96931.53;5067715;28;20790;-71
2021/09/21 03:36:30;;;;;;;23.70;11.75;;;;;;;14.50;92.33;96919.81;5068025;28;20223;-71
2021/09/21 03:38:57;;;;;;;22.13;12.50;;;;;;;14.07;91.24;96920.59;5067855;28;20243;-72
2021/09/21 03:41:23;;;;;;;22.60;11.98;;;;;;;14.06;91.94;96916.31;5067988;28;20200;-71
2021/09/21 03:43:50;;;;;;;21.52;12.13;;;;;;;14.29;92.69;96921.56;5067892;28;20782;-72
2021/09/21 03:46:17;;;;;;;22.08;12.38;;;;;;;14.29;92.10;96929.50;5067693;28;20231;-71
2021/09/21 03:48:43;;;;;;;21.35;12.75;;;;;;;14.22;92.48;96931.25;5067803;28;20200;-71
2021/09/21 03:51:10;;;;;;;22.63;12.95;;;;;;;14.23;93.20;96946.13;5067580;28;20672;-73
2021/09/21 03:53:38;;;;;;;21.27;12.45;;;;;;;14.33;92.04;96949.34;5068004;28;20205;-71
2021/09/21 03:56:05;;;;;;;20.42;11.57;;;;;;;14.25;91.70;96949.44;5067369;28;20227;-71
2021/09/21 03:58:32;;;;;;;20.40;11.93;;;;;;;14.28;91.61;96951.72;5067805;28;20197;-71
2021/09/21 04:00:58;;;;;;;21.50;12.82;;;;;;;14.16;90.43;96955.84;5067675;28;20227;-71
2021/09/21 04:03:25;;;;;;;23.75;11.90;;;;;;;14.10;90.63;96952.09;5067643;28;20206;-71
2021/09/21 04:05:51;;;;;;;20.08;11.40;;;;;;;14.11;90.80;96958.22;5066941;28;20228;-71
2021/09/21 04:08:18;;;;;;;19.23;11.30;;;;;;;14.05;91.22;96954.44;5067743;28;20634;-71
2021/09/21 04:10:46;;;;;;;20.10;11.80;;;;;;;14.32;91.84;96966.25;5067372;28;20573;-71
2021/09/21 04:13:12;;;;;;;20.38;11.57;;;;;;;14.05;93.09;96966.84;5067860;28;20208;-71
2021/09/21 04:15:40;;;;;;;20.55;11.88;;;;;;;14.32;91.97;96967.09;5066827;28;20216;-71
2021/09/21 04:18:08;;;;;;;18.80;11.43;;;;;;;14.21;91.05;96958.78;5067863;28;20262;-71
2021/09/21 04:20:35;;;;;;;20.73;11.30;;;;;;;14.21;91.54;96964.88;5067155;28;20213;-70
2021/09/21 04:23:02;;;;;;;21.92;12.65;;;;;;;14.22;92.99;96969.19;5068946;28;20208;-71
2021/09/21 04:25:30;;;;;;;24.60;13.48;;;;;;;14.28;93.57;96971.13;5070665;28;20227;-71
2021/09/21 04:27:58;;;;;;;21.65;11.68;;;;;;;14.27;91.84;96969.47;5071385;28;20231;-71
2021/09/21 04:30:25;;;;;;;23.63;12.38;;;;;;;14.11;91.58;96976.75;5069911;28;20209;-71
2021/09/21 04:32:51;;;;;;;20.13;11.18;;;;;;;14.04;92.37;96970.50;5071173;28;20656;-71
2021/09/21 04:35:18;;;;;;;22.63;12.80;;;;;;;13.98;92.84;96967.75;5070676;28;20224;-71
2021/09/21 04:37:44;;;;;;;25.15;12.68;;;;;;;13.89;93.13;96967.00;5070933;28;20196;-71
2021/09/21 04:40:12;;;;;;;25.42;12.77;;;;;;;14.07;93.11;96975.44;5070621;28;20232;-71
2021/09/21 04:42:38;;;;;;;25.13;12.43;;;;;;;14.10;93.23;96981.25;5070880;28;20207;-72
2021/09/21 04:45:07;;;;;;;24.50;12.52;;;;;;;14.28;92.66;96978.22;5070853;28;20209;-72
2021/09/21 04:47:34;;;;;;;22.63;12.57;;;;;;;14.06;92.82;96987.03;5070273;28;20282;-71
2021/09/21 04:50:00;;;;;;;21.30;11.73;;;;;;;13.90;93.11;96995.16;5070945;28;20196;-71
2021/09/21 04:52:27;;;;;;;21.92;11.75;;;;;;;14.01;92.39;96994.72;5070822;28;20205;-72
2021/09/21 04:54:53;;;;;;;24.17;11.82;;;;;;;14.06;92.15;97002.94;5070777;28;20196;-72
2021/09/21 04:57:20;;;;;;;24.65;13.05;;;;;;;14.01;91.93;97008.81;5069766;28;20235;-72
2021/09/21 04:59:46;;;;;;;25.60;12.57;;;;;;;13.91;92.25;97012.69;5070841;28;20216;-71
2021/09/21 05:02:14;;;;;;;25.27;13.27;;;;;;;13.97;91.71;97011.97;5070271;28;20204;-71
2021/09/21 05:04:40;;;;;;;20.67;11.50;;;;;;;14.04;90.85;97008.44;5070588;28;20217;-71
2021/09/21 05:07:07;;;;;;;27.80;12.85;;;;;;;13.90;91.35;97003.09;5069738;28;20594;-71
2021/09/21 05:09:33;;;;;;;20.03;11.50;;;;;;;13.99;91.22;97005.50;5070685;28;20598;-69
2021/09/21 05:12:00;;;;;;;21.40;12.70;;;;;;;14.01;90.74;97008.81;5070018;28;20201;-71
2021/09/21 05:14:26;;;;;;;24.17;12.57;;;;;;;14.16;91.88;97027.41;5070468;28;20209;-71
2021/09/21 05:16:52;;;;;;;23.48;13.07;;;;;;;14.05;91.24;97025.16;5069861;28;20220;-71
2021/09/21 05:19:20;;;;;;;20.48;12.45;;;;;;;14.33;90.76;97031.53;5070191;28;20220;-70
2021/09/21 05:21:47;;;;;;;22.63;12.93;;;;;;;14.20;91.71;97034.00;5069572;28;20212;-71
2021/09/21 05:24:13;;;;;;;24.20;12.83;;;;;;;14.26;90.38;97043.88;5069772;28;20196;-71
2021/09/21 05:26:40;;;;;;;21.92;12.32;;;;;;;14.25;90.44;97047.53;5069764;28;20220;-71
2021/09/21 05:29:06;;;;;;;22.10;12.45;;;;;;;14.02;90.77;97050.19;5068865;28;20211;-72
2021/09/21 05:31:33;;;;;;;26.92;12.55;;;;;;;14.12;90.99;97049.97;5070060;28;20211;-71
2021/09/21 05:33:59;;;;;;;22.83;12.45;;;;;;;14.03;91.09;97056.31;5069960;28;20205;-72
2021/09/21 05:36:27;;;;;;;25.58;13.27;;;;;;;14.11;90.65;97070.34;5069406;28;21236;-71
2021/09/21 05:38:54;;;;;;;25.48;12.30;;;;;;;14.03;91.18;97070.38;5069664;28;20205;-71
2021/09/21 05:41:20;;;;;;;24.45;13.50;;;;;;;14.07;91.69;97078.81;5069391;28;20231;-72
2021/09/21 05:43:47;;;;;;;24.23;12.68;;;;;;;13.98;91.37;97083.34;5069866;28;20216;-72
2021/09/21 05:46:13;;;;;;;21.95;12.73;;;;;;;13.94;89.79;97078.59;5069256;28;20224;-71
2021/09/21 05:48:40;;;;;;;25.58;13.45;;;;;;;13.72;91.13;97083.88;5069694;28;20596;-72
2021/09/21 05:51:06;;;;;;;21.38;12.60;;;;;;;13.93;91.13;97087.53;5069608;28;20197;-72
2021/09/21 05:53:34;;;;;;;22.25;12.43;;;;;;;13.96;90.33;97095.13;5069527;28;20205;-72
2021/09/21 05:56:00;;;;;;;22.88;12.38;;;;;;;14.11;90.13;97093.38;5069338;28;20228;-72
2021/09/21 05:58:27;;;;;;;21.42;11.93;;;;;;;14.08;90.80;97094.56;5069421;28;20201;-71
2021/09/21 06:00:53;;;;;;;24.45;12.98;;;;;;;14.12;89.57;97101.16;5069462;28;20224;-71
2021/09/21 06:03:20;;;;;;;22.38;12.85;;;;;;;14.07;89.01;97105.31;5069084;28;20209;-72
2021/09/21 06:05:48;;;;;;;21.70;12.77;;;;;;;14.02;90.00;97115.63;5068978;28;20734;-72
2021/09/21 06:08:14;;;;;;;21.15;12.60;;;;;;;14.01;88.81;97111.31;5068250;28;20212;-72
2021/09/21 06:10:42;;;;;;;22.23;12.82;;;;;;;14.22;90.48;97119.50;5069421;28;20200;-72
2021/09/21 06:13:08;;;;;;;26.10;14.27;;;;;;;13.83;89.73;97118.72;5068849;28;20208;-72
2021/09/21 06:15:35;;;;;;;24.13;13.65;;;;;;;13.75;90.26;97124.09;5069158;28;20231;-72
2021/09/21 06:18:01;;;;;;;23.33;13.20;;;;;;;13.86;90.51;97125.50;5069206;28;20201;-72
2021/09/21 06:20:28;;;;;;;24.63;13.27;;;;;;;14.10;89.66;97131.47;5068819;28;20260;-72
2021/09/21 06:22:54;;;;;;;27.30;13.40;;;;;;;13.96;89.63;97128.75;5068823;28;20200;-72
2021/09/21 06:25:21;;;;;;;25.37;14.10;;;;;;;14.13;89.60;97124.00;5068961;28;20228;-72
2021/09/21 06:27:49;;;;;;;25.50;13.85;;;;;;;14.19;88.92;97128.63;5069115;28;20204;-72
2021/09/21 06:30:17;;;;;;;22.60;13.27;;;;;;;14.15;89.46;97122.03;5067631;28;20204;-70
2021/09/21 06:32:44;;;;;;;22.80;13.25;;;;;;;14.08;89.24;97120.25;5068934;28;20231;-70
2021/09/21 06:35:11;;;;;;;23.13;12.88;;;;;;;14.11;88.62;97122.53;5067957;28;20200;-71
2021/09/21 06:37:38;;;;;;;21.23;12.43;;;;;;;14.28;89.01;97124.06;5068749;28;20200;-71
2021/09/21 06:40:06;;;;;;;24.23;12.88;;;;;;;14.43;88.51;97132.88;5067580;28;20263;-71
2021/09/21 06:42:33;;;;;;;24.42;12.63;;;;;;;14.48;89.18;97122.56;5068742;28;20708;-72
2021/09/21 06:45:02;;;;;;;25.35;13.52;;;;;;;14.54;87.63;97121.84;5068097;28;20755;-72
2021/09/21 06:47:28;;;;;;;20.17;11.73;;;;;;;14.40;86.92;97115.50;5067952;28;20196;-72
2021/09/21 06:49:54;;;;;;;22.45;13.05;;;;;;;14.35;87.32;97128.47;5068165;28;20219;-71
2021/09/21 06:52:21;;;;;;;22.30;12.82;;;;;;;14.59;87.12;97124.78;5068864;28;20204;-71
2021/09/21 06:54:47;;;;;;;23.75;12.63;;;;;;;14.25;86.77;97121.78;5068107;28;20208;-71
2021/09/21 06:57:14;;;;;;;23.13;12.68;;;;;;;14.34;86.50;97120.69;5068341;28;20231;-71
2021/09/21 06:59:40;;;;;;;22.88;13.27;;;;;;;14.49;85.81;97130.34;5068170;28;20204;-71
2021/09/21 07:02:08;;;;;;;26.80;13.45;;;;;;;14.79;85.72;97122.25;5068600;28;20215;-72
2021/09/21 07:04:35;;;;;;;22.67;12.80;;;;;;;14.69;85.95;97127.00;5068150;28;20201;-72
2021/09/21 07:07:01;;;;;;;24.33;13.15;;;;;;;14.86;86.24;97117.84;5068176;28;20255;-72
2021/09/21 07:09:28;;;;;;;23.70;14.18;;;;;;;14.74;84.28;97123.81;5068192;28;20204;-71
2021/09/21 07:11:54;;;;;;;25.85;12.82;;;;;;;14.91;85.21;97128.75;5068530;28;20552;-72
2021/09/21 07:14:21;;;;;;;29.13;13.70;;;;;;;14.99;84.09;97136.63;5068266;28;20201;-71
2021/09/21 07:16:47;;;;;;;21.95;13.20;;;;;;;15.28;84.73;97134.00;5068165;28;20225;-72
2021/09/21 07:19:16;;;;;;;25.48;14.27;;;;;;;15.24;86.81;97149.47;5068141;28;20208;-71
2021/09/21 07:21:42;;;;;;;24.10;13.73;;;;;;;15.33;84.39;97148.38;5067968;28;20224;-71
2021/09/21 07:24:09;;;;;;;24.00;13.18;;;;;;;15.22;83.81;97153.31;5067958;28;20208;-71
2021/09/21 07:26:36;;;;;;;24.30;14.18;;;;;;;15.37;82.06;97146.19;5067734;28;20227;-71
2021/09/21 07:29:02;;;;;;;26.15;13.10;;;;;;;15.11;82.84;97153.78;5067303;28;20207;-71
2021/09/21 07:31:29;;;;;;;23.55;12.68;;;;;;;15.31;81.01;97161.03;5067702;28;20193;-71
2021/09/21 07:33:56;;;;;;;24.52;13.60;;;;;;;15.24;83.16;97170.72;5068285;28;20208;-72
2021/09/21 07:36:23;;;;;;;20.58;12.70;;;;;;;15.65;83.00;97176.41;5067606;28;20224;-71
2021/09/21 07:38:50;;;;;;;23.60;12.85;;;;;;;15.65;82.15;97171.06;5068239;28;20224;-71
2021/09/21 07:41:16;;;;;;;25.45;14.40;;;;;;;15.66;81.19;97181.50;5067767;28;20224;-72
2021/09/21 07:43:44;;;;;;;24.50;13.65;;;;;;;15.66;82.09;97183.38;5068264;28;20196;-71
2021/09/21 07:46:11;;;;;;;22.77;13.05;;;;;;;15.56;81.40;97190.78;5066604;28;20228;-71
2021/09/21 07:48:38;;;;;;;23.27;12.10;;;;;;;15.65;81.26;97190.50;5068229;28;20250;-72
2021/09/21 07:51:05;;;;;;;22.75;11.82;;;;;;;15.73;83.97;97187.72;5066741;28;20204;-72
2021/09/21 07:53:33;;;;;;;25.65;14.32;;;;;;;15.80;81.17;97188.66;5067200;28;20586;-72
2021/09/21 07:56:00;;;;;;;21.13;11.98;;;;;;;15.81;81.57;97189.47;5065081;28;20228;-72
2021/09/21 07:58:26;;;;;;;20.30;12.50;;;;;;;15.91;80.73;97206.75;5068036;28;20196;-72
2021/09/21 08:00:54;;;;;;;22.00;12.07;;;;;;;15.91;80.55;97204.94;5071563;28;20217;-71
2021/09/21 08:03:21;;;;;;;18.73;11.68;;;;;;;16.07;80.76;97209.22;5071236;28;20247;-72
2021/09/21 08:05:47;;;;;;;24.73;12.68;;;;;;;15.89;79.58;97208.78;5071185;28;20243;-71
2021/09/21 08:08:15;;;;;;;21.67;13.18;;;;;;;16.15;76.62;97209.94;5071601;28;20279;-72
2021/09/21 08:10:44;;;;;;;18.25;11.70;;;;;;;16.46;77.84;97213.16;5071446;28;20291;-72
2021/09/21 08:13:10;;;;;;;23.65;12.48;;;;;;;15.85;79.21;97216.31;5071079;28;20788;-72
2021/09/21 08:15:37;;;;;;;20.60;11.07;;;;;;;16.28;77.16;97220.75;5071407;28;20638;-71
2021/09/21 08:18:06;;;;;;;17.90;12.15;;;;;;;16.12;79.25;97226.25;5071516;28;20208;-71
2021/09/21 08:20:33;;;;;;;22.13;12.50;;;;;;;16.36;77.66;97225.94;5071531;28;20227;-71
2021/09/21 08:23:00;;;;;;;17.35;11.00;;;;;;;16.64;75.81;97227.66;5070829;28;20706;-71
2021/09/21 08:25:27;;;;;;;20.00;11.40;;;;;;;16.65;76.10;97233.81;5070891;28;20412;-71
2021/09/21 08:27:55;;;;;;;18.02;11.68;;;;;;;16.53;75.50;97236.16;5071180;28;20262;-71
2021/09/21 08:30:21;;;;;;;16.95;10.68;;;;;;;16.57;76.33;97225.94;5070384;28;20200;-71
2021/09/21 08:32:48;;;;;;;18.50;11.30;;;;;;;16.58;75.78;97222.28;5071765;28;20220;-71
2021/09/21 08:35:14;;;;;;;18.52;11.35;;;;;;;16.30;76.58;97224.03;5071178;28;20581;-71
2021/09/21 08:37:41;;;;;;;19.50;12.15;;;;;;;16.35;73.72;97228.78;5070447;28;20676;-71
2021/09/21 08:40:08;;;;;;;19.25;12.13;;;;;;;16.45;78.38;97232.78;5070870;28;20204;-71
2021/09/21 08:42:35;;;;;;;25.27;12.35;;;;;;;16.20;76.68;97236.75;5070960;28;20400;-71
2021/09/21 08:45:03;;;;;;;22.25;11.75;;;;;;;16.86;73.54;97237.28;5071511;28;20208;-71
2021/09/21 08:47:32;;;;;;;23.60;11.77;;;;;;;16.94;75.33;97245.16;5070817;28;20224;-71
2021/09/21 08:49:58;;;;;;;16.67;10.50;;;;;;;16.56;75.07;97250.94;5071339;28;20708;-71
2021/09/21 08:52:25;;;;;;;19.55;11.85;;;;;;;16.46;75.05;97258.41;5070541;28;20209;-71
2021/09/21 08:54:51;;;;;;;18.42;11.40;;;;;;;16.79;73.75;97262.19;5071509;28;20204;-71
2021/09/21 08:57:19;;;;;;;21.88;11.95;;;;;;;16.73;73.02;97257.66;5070414;28;20239;-71
2021/09/21 08:59:52;;;;;;;19.10;11.65;;;;;;;16.93;70.53;97258.63;5070520;28;20201;-71
2021/09/21 09:02:21;;;;;;;17.65;10.93;;;;;;;16.89;71.81;97265.34;5069861;28;20264;-71
2021/09/21 09:04:58;;;;;;;20.20;11.80;;;;;;;16.98;70.97;97261.56;5069907;28;20673;-71
2021/09/21 09:07:25;;;;;;;20.77;11.43;;;;;;;16.93;72.01;97251.50;5070558;28;20411;-71
2021/09/21 09:10:00;;;;;;;16.98;10.38;;;;;;;16.78;69.44;97252.59;5069540;28;20212;-71
2021/09/21 09:12:30;;;;;;;17.48;10.82;;;;;;;16.65;69.94;97250.59;5070128;28;20234;-71
2021/09/21 09:14:56;;;;;;;22.10;11.57;;;;;;;16.77;71.48;97264.22;5069226;28;20300;-72
2021/09/21 09:17:25;;;;;;;20.90;11.32;;;;;;;17.08;73.30;97258.38;5069678;28;20208;-71
2021/09/21 09:19:51;;;;;;;20.50;11.05;;;;;;;17.18;70.04;97253.56;5069956;28;20207;-71
2021/09/21 09:22:22;;;;;;;18.92;11.40;;;;;;;17.21;69.81;97263.81;5069369;28;20231;-71
2021/09/21 09:24:51;;;;;;;20.25;11.50;;;;;;;17.39;71.39;97269.50;5070114;28;20229;-72
2021/09/21 09:27:19;;;;;;;18.23;11.88;;;;;;;17.31;68.49;97259.00;5069194;28;20236;-71
2021/09/21 09:29:55;;;;;;;20.65;11.65;;;;;;;17.75;68.01;97256.84;5069213;28;20200;-71
2021/09/21 09:32:23;;;;;;;17.55;11.05;;;;;;;17.33;68.85;97256.16;5069374;28;20200;-72
2021/09/21 09:34:50;;;;;;;22.85;11.10;;;;;;;17.62;70.34;97254.09;5070177;28;20222;-72
2021/09/21 09:37:18;;;;;;;19.15;11.07;;;;;;;17.71;69.21;97245.72;5069563;28;20221;-71
2021/09/21 09:39:47;;;;;;;16.88;10.60;;;;;;;17.83;65.45;97254.00;5069905;28;20207;-71
2021/09/21 09:42:14;;;;;;;17.00;11.13;;;;;;;17.80;66.71;97259.75;5069543;28;20224;-71
2021/09/21 09:44:43;;;;;;;20.70;10.70;;;;;;;17.71;66.22;97267.06;5069562;28;20207;-71
2021/09/21 09:47:09;;;;;;;18.42;10.68;;;;;;;18.07;65.27;97264.19;5068913;28;20225;-71
2021/09/21 09:49:39;;;;;;;18.80;10.73;;;;;;;18.08;67.15;97268.50;5069145;28;20193;-72
2021/09/21 09:52:08;;;;;;;17.48;10.10;;;;;;;18.03;68.88;97260.28;5069406;28;20196;-72
2021/09/21 09:54:35;;;;;;;19.38;11.18;;;;;;;17.76;69.04;97266.47;5068991;28;20675;-71
2021/09/21 09:57:04;;;;;;;19.73;10.85;;;;;;;17.91;65.63;97267.19;5068920;28;20227;-72
2021/09/21 09:59:30;;;;;;;17.60;10.07;;;;;;;18.17;64.59;97265.50;5069201;28;20193;-71
2021/09/21 10:01:57;;;;;;;15.30;9.38;;;;;;;17.78;63.31;97267.09;5069436;28;20227;-72
2021/09/21 10:04:24;;;;;;;16.92;9.95;;;;;;;17.61;64.81;97263.09;5068806;28;20204;-71
2021/09/21 10:06:52;;;;;;;17.83;10.30;;;;;;;18.29;64.26;97263.06;5064864;28;20727;-71
2021/09/21 10:09:19;;;;;;;16.58;9.95;;;;;;;18.79;64.11;97274.94;5057794;28;20219;-71
2021/09/21 10:11:49;;;;;;;17.05;10.23;;;;;;;18.93;63.61;97271.25;5064677;28;20288;-71
2021/09/21 10:14:19;;;;;;;21.58;11.07;;;;;;;19.13;62.68;97277.47;5068643;28;20196;-71
2021/09/21 10:16:47;;;;;;;15.88;10.27;;;;;;;18.69;62.20;97274.50;5069223;28;20627;-71
2021/09/21 10:19:19;;;;;;;20.42;11.10;;;;;;;18.69;62.75;97263.81;5068902;28;20313;-71
2021/09/21 10:21:48;;;;;;;14.55;10.30;;;;;;;18.69;60.95;97268.34;5068005;28;20259;-71
2021/09/21 10:24:15;;;;;;;17.50;9.85;;;;;;;18.49;63.29;97275.47;5068445;28;20204;-71
2021/09/21 10:26:44;;;;;;;17.98;10.38;;;;;;;19.13;64.03;97272.13;5068647;28;20225;-71
2021/09/21 10:29:13;;;;;;;14.75;9.60;;;;;;;18.44;64.00;97281.41;5067901;28;20210;-71
2021/09/21 10:31:41;;;;;;;18.08;10.90;;;;;;;18.58;66.12;97282.25;5068866;28;20196;-71
2021/09/21 10:34:11;;;;;;;14.98;9.57;;;;;;;18.32;61.14;97286.69;5068835;28;20212;-71
2021/09/21 10:36:47;;;;;;;13.63;8.93;;;;;;;18.09;62.00;97284.31;5067744;28;20220;-71
2021/09/21 10:39:16;;;;;;;16.27;9.82;;;;;;;18.02;61.72;97280.75;5068551;28;20212;-71
2021/09/21 10:41:48;;;;;;;15.25;9.35;;;;;;;18.01;61.06;97280.97;5068894;28;20660;-71
2021/09/21 10:44:14;;;;;;;14.48;8.77;;;;;;;17.83;60.39;97289.50;5068728;28;20204;-71
2021/09/21 10:46:46;;;;;;;14.60;8.10;;;;;;;18.19;61.75;97281.28;5068554;28;21048;-71
2021/09/21 10:49:23;;;;;;;14.77;9.27;;;;;;;18.37;61.05;97280.56;5068473;28;20204;-71
2021/09/21 10:51:50;;;;;;;15.13;8.30;;;;;;;18.25;61.24;97283.19;5068577;28;20283;-71
2021/09/21 10:54:29;;;;;;;11.73;7.60;;;;;;;18.55;61.24;97280.81;5068778;28;20200;-71
2021/09/21 10:57:11;;;;;;;12.38;8.25;;;;;;;18.87;61.90;97290.75;5067645;28;20789;-71
2021/09/21 10:59:38;;;;;;;16.38;8.25;;;;;;;18.81;60.04;97283.53;5068604;28;20203;-71
2021/09/21 11:02:06;;;;;;;13.98;8.48;;;;;;;18.90;62.31;97286.84;5066478;28;21085;-71
2021/09/21 11:04:43;;;;;;;12.05;7.57;;;;;;;18.81;58.79;97288.88;5068537;28;20197;-71
2021/09/21 11:07:12;;;;;;;9.93;6.40;;;;;;;18.68;58.59;97286.19;5067466;28;20738;-71
2021/09/21 11:09:40;;;;;;;11.80;6.95;;;;;;;18.62;59.30;97279.00;5068299;28;20235;-72
2021/09/21 11:12:09;;;;;;;11.70;7.30;;;;;;;18.65;59.24;97275.91;5068044;28;20577;-71
2021/09/21 11:14:37;;;;;;;11.77;7.88;;;;;;;18.45;58.18;97277.69;5067950;28;20227;-71
2021/09/21 11:17:04;;;;;;;12.63;7.50;;;;;;;18.38;60.21;97273.38;5067867;28;20280;-71
2021/09/21 11:19:32;;;;;;;14.73;7.97;;;;;;;18.63;59.17;97271.81;5068214;28;20203;-71
2021/09/21 11:22:00;;;;;;;11.20;7.85;;;;;;;19.02;59.64;97275.38;5068043;28;20227;-72
2021/09/21 11:24:26;;;;;;;13.52;8.18;;;;;;;18.75;59.79;97276.38;5067965;28;20196;-72
2021/09/21 11:26:59;;;;;;;14.70;8.10;;;;;;;19.16;59.06;97271.72;5067160;28;20228;-72